^^
Meteo Knjazevac Station Historical Data
Daily Summary for March 30, 2021 Units:  English    Metric   Both
Daily Weekly Monthly Yearly Custom
  High: Low: Average:
Temperature: 61.2 °F 49.5 °F 55.4 °F
Dew Point: 54.6 °F 47.8 °F 51 °F
Humidity: 96% 73% 85%
Wind Speed: 10mph 0mph 2.6mph
Wind Gust: 18mph - -
Wind- - SW
Pressure: 30.13 in 30.09 in -
Precipitation: 0.00 in    
Historical Graphs
 
 
Tabular Data for March 30, 2021
Time Temperature Dew Point Pressure Wind Wind Speed Wind Gust Humidity Rainfall Rate (Hourly) solar Conditions
00:00 53.4 °F 49 °F 30.09 in East 1 mph 3 mph 85% 0.00 in 0 W/m2
00:10 53.4 °F 49 °F 30.09 in Calm   3 mph 85% 0.00 in 0 W/m2
00:20 53.2 °F 48.8 °F 30.09 in East 1 mph 3 mph 85% 0.00 in 0 W/m2
00:30 53.2 °F 48.8 °F 30.09 in SE 2 mph 3 mph 85% 0.00 in 0 W/m2
00:40 53.1 °F 48.7 °F 30.09 in ESE 1 mph 3 mph 85% 0.00 in 0 W/m2
00:50 53.1 °F 48.7 °F 30.09 in East 1 mph 3 mph 85% 0.00 in 0 W/m2
01:00 52.9 °F 48.5 °F 30.09 in Calm   2 mph 85% 0.00 in 0 W/m2
01:10 52.9 °F 48.8 °F 30.09 in Calm   2 mph 86% 0.00 in 0 W/m2
01:20 52.7 °F 49.2 °F 30.09 in Calm   2 mph 88% 0.00 in 0 W/m2
01:30 52.7 °F 49.2 °F 30.09 in Calm   2 mph 88% 0.00 in 0 W/m2
01:40 52.5 °F 49.1 °F 30.09 in Calm   2 mph 88% 0.00 in 0 W/m2
01:50 52.3 °F 48.9 °F 30.09 in Calm   2 mph 88% 0.00 in 0 W/m2
02:00 52.2 °F 48.7 °F 30.09 in NNE 2 mph 3 mph 88% 0.00 in 0 W/m2
02:10 52.1 °F 48.9 °F 30.09 in Calm   2 mph 89% 0.00 in 0 W/m2
02:20 52 °F 48.8 °F 30.09 in Calm   2 mph 89% 0.00 in 0 W/m2
02:30 51.8 °F 48.7 °F 30.09 in NW 1 mph 2 mph 89% 0.00 in 0 W/m2
02:40 51.6 °F 48.8 °F 30.09 in Calm   2 mph 90% 0.00 in 0 W/m2
02:50 51.4 °F 48.3 °F 30.09 in Calm   3 mph 89% 0.00 in 0 W/m2
03:00 51.4 °F 48.3 °F 30.09 in Calm   1 mph 89% 0.00 in 0 W/m2
03:10 51.4 °F 48.6 °F 30.09 in Calm   1 mph 90% 0.00 in 0 W/m2
03:20 51.3 °F 48.7 °F 30.09 in SW 1 mph 2 mph 91% 0.00 in 0 W/m2
03:30 51.1 °F 48.5 °F 30.09 in Calm   1 mph 91% 0.00 in 0 W/m2
03:40 50.9 °F 48.9 °F 30.09 in Calm   1 mph 93% 0.00 in 0 W/m2
03:50 50.9 °F 48.9 °F 30.09 in Calm   3 mph 93% 0.00 in 0 W/m2
04:00 50.9 °F 48.9 °F 30.09 in Calm   2 mph 93% 0.00 in 0 W/m2
04:10 50.9 °F 48.4 °F 30.09 in SSW 2 mph 5 mph 91% 0.00 in 0 W/m2
04:20 51 °F 49 °F 30.09 in Calm   2 mph 93% 0.00 in 0 W/m2
04:30 50.9 °F 48.9 °F 30.09 in West 1 mph 2 mph 93% 0.00 in 0 W/m2
04:40 50.9 °F 49.2 °F 30.09 in Calm   2 mph 94% 0.00 in 0 W/m2
04:50 50.7 °F 49.1 °F 30.09 in Calm   2 mph 94% 0.00 in 0 W/m2
05:00 50.9 °F 49.2 °F 30.09 in Calm   2 mph 94% 0.00 in 2 W/m2
05:10 50.9 °F 49.2 °F 30.09 in Calm   2 mph 94% 0.00 in 5 W/m2
05:20 50.9 °F 49.5 °F 30.09 in NW 1 mph 2 mph 95% 0.00 in 11 W/m2
05:30 50.9 °F 49.5 °F 30.10 in West 1 mph 3 mph 95% 0.00 in 19 W/m2
05:40 50.9 °F 49.5 °F 30.10 in West 2 mph 3 mph 95% 0.00 in 25 W/m2
05:50 50.9 °F 49.5 °F 30.10 in Calm   3 mph 95% 0.00 in 31 W/m2
06:00 50.9 °F 49.5 °F 30.10 in WSW 1 mph 3 mph 95% 0.00 in 44 W/m2
06:10 50.9 °F 49.8 °F 30.10 in West 1 mph 3 mph 96% 0.00 in 55 W/m2
06:20 51.1 °F 50 °F 30.10 in Calm   2 mph 96% 0.00 in 69 W/m2
06:30 51.4 °F 50.3 °F 30.10 in WNW 1 mph 2 mph 96% 0.00 in 78 W/m2
06:40 51.6 °F 50.5 °F 30.10 in Calm   3 mph 96% 0.00 in 93 W/m2
06:50 51.8 °F 50.4 °F 30.10 in Calm   2 mph 95% 0.00 in 105 W/m2
07:00 52.2 °F 50.8 °F 30.10 in Calm   1 mph 95% 0.00 in 120 W/m2
07:10 52.5 °F 51.1 °F 30.11 in WSW 2 mph 3 mph 95% 0.00 in 162 W/m2
07:20 53 °F 51.6 °F 30.11 in SW 2 mph 3 mph 95% 0.00 in 229 W/m2
07:30 53.8 °F 52.1 °F 30.11 in NE 2 mph 5 mph 94% 0.00 in 210 W/m2
07:40 54.3 °F 51.7 °F 30.11 in North 1 mph 4 mph 91% 0.00 in 217 W/m2
07:50 54.9 °F 52 °F 30.12 in SW 2 mph 5 mph 90% 0.00 in 153 W/m2
08:00 55.5 °F 51.1 °F 30.12 in West 7 mph 13 mph 85% 0.00 in 441 W/m2
08:10 56.1 °F 51 °F 30.12 in West 7 mph 14 mph 83% 0.00 in 413 W/m2
08:20 56.5 °F 50.7 °F 30.11 in West 7 mph 14 mph 81% 0.00 in 190 W/m2
08:30 57 °F 50.9 °F 30.12 in WSW 5 mph 12 mph 80% 0.00 in 512 W/m2
08:40 57.7 °F 51.3 °F 30.12 in West 7 mph 13 mph 79% 0.00 in 284 W/m2
08:50 57.9 °F 51.4 °F 30.12 in West 9 mph 15 mph 79% 0.00 in 263 W/m2
09:00 57.9 °F 51.1 °F 30.12 in West 10 mph 18 mph 78% 0.00 in 582 W/m2
09:10 58.6 °F 51.8 °F 30.12 in WSW 8 mph 15 mph 78% 0.00 in 695 W/m2
09:20 59.5 °F 52.3 °F 30.12 in West 5 mph 12 mph 77% 0.00 in 592 W/m2
09:30 60.1 °F 52.1 °F 30.12 in WSW 9 mph 15 mph 75% 0.00 in 604 W/m2
09:40 60.4 °F 52.5 °F 30.12 in West 6 mph 13 mph 75% 0.00 in 518 W/m2
09:50 60.4 °F 52 °F 30.12 in WSW 7 mph 13 mph 74% 0.00 in 542 W/m2
10:00 60.3 °F 52.3 °F 30.12 in West 6 mph 15 mph 75% 0.00 in 371 W/m2
10:10 60.1 °F 51.8 °F 30.12 in West 5 mph 11 mph 74% 0.00 in 444 W/m2
10:20 60.1 °F 52.1 °F 30.12 in West 6 mph 13 mph 75% 0.00 in 413 W/m2
10:30 59.9 °F 51.6 °F 30.13 in West 7 mph 13 mph 74% 0.00 in 450 W/m2
10:40 60.2 °F 52.2 °F 30.13 in WSW 6 mph 10 mph 75% 0.00 in 502 W/m2
10:50 60.4 °F 52.5 °F 30.13 in West 6 mph 9 mph 75% 0.00 in 652 W/m2
11:00 60.6 °F 51.9 °F 30.13 in West 7 mph 14 mph 73% 0.00 in 482 W/m2
11:10 60.3 °F 52 °F 30.12 in West 7 mph 14 mph 74% 0.00 in 463 W/m2
11:20 60.4 °F 52.1 °F 30.12 in West 7 mph 12 mph 74% 0.00 in 706 W/m2
11:30 61 °F 52.6 °F 30.12 in WSW 8 mph 13 mph 74% 0.00 in 563 W/m2
11:40 61.2 °F 52.8 °F 30.12 in WSW 7 mph 14 mph 74% 0.00 in 534 W/m2
11:50 61 °F 52.6 °F 30.12 in WSW 3 mph 12 mph 74% 0.00 in 406 W/m2
12:00 60.8 °F 52.5 °F 30.12 in West 6 mph 12 mph 74% 0.00 in 374 W/m2
12:10 60.1 °F 52.2 °F 30.12 in West 7 mph 13 mph 75% 0.00 in 207 W/m2
12:20 59.2 °F 51.6 °F 30.12 in West 8 mph 13 mph 76% 0.00 in 183 W/m2
12:30 58.5 °F 51.6 °F 30.12 in West 5 mph 11 mph 78% 0.00 in 137 W/m2
12:40 57.8 °F 51.3 °F 30.12 in West 5 mph 11 mph 79% 0.00 in 153 W/m2
12:50 57.6 °F 51.1 °F 30.12 in West 3 mph 10 mph 79% 0.00 in 169 W/m2
13:00 57.6 °F 51.4 °F 30.12 in West 3 mph 7 mph 80% 0.00 in 236 W/m2
13:10 57.7 °F 51.6 °F 30.13 in West 2 mph 7 mph 80% 0.00 in 197 W/m2
13:20 57.7 °F 51.6 °F 30.13 in West 3 mph 6 mph 80% 0.00 in 170 W/m2
13:30 57.6 °F 51.1 °F 30.13 in WSW 5 mph 10 mph 79% 0.00 in 215 W/m2
13:40 57.7 °F 51.6 °F 30.13 in WSW 5 mph 7 mph 80% 0.00 in 193 W/m2
13:50 57.6 °F 51.8 °F 30.12 in WSW 5 mph 7 mph 81% 0.00 in 184 W/m2
14:00 57.4 °F 51.6 °F 30.12 in WSW 2 mph 7 mph 81% 0.00 in 166 W/m2
14:10 57.4 °F 51.6 °F 30.12 in WSW 1 mph 5 mph 81% 0.00 in 191 W/m2
14:20 57.6 °F 52.1 °F 30.12 in WNW 1 mph 5 mph 82% 0.00 in 263 W/m2
14:30 57.7 °F 51.6 °F 30.12 in WSW 3 mph 6 mph 80% 0.00 in 213 W/m2
14:40 57.9 °F 51.8 °F 30.12 in SW 2 mph 5 mph 80% 0.00 in 198 W/m2
14:50 57.9 °F 51.8 °F 30.12 in SSW 2 mph 5 mph 80% 0.00 in 127 W/m2
15:00 57.9 °F 52.1 °F 30.12 in SW 2 mph 6 mph 81% 0.00 in 138 W/m2
15:10 57.8 °F 52 °F 30.12 in SW 5 mph 6 mph 81% 0.00 in 176 W/m2
15:20 57.7 °F 52.6 °F 30.12 in SW 6 mph 9 mph 83% 0.00 in 174 W/m2
15:30 57.4 °F 52.6 °F 30.12 in SW 3 mph 9 mph 84% 0.00 in 179 W/m2
15:40 57.4 °F 53.2 °F 30.12 in SW 3 mph 7 mph 86% 0.00 in 228 W/m2
15:50 57.4 °F 53.9 °F 30.12 in South 1 mph 7 mph 88% 0.00 in 237 W/m2
16:00 57.6 °F 53.4 °F 30.12 in SSE 3 mph 7 mph 86% 0.00 in 228 W/m2
16:10 57.4 °F 53.2 °F 30.12 in South 2 mph 9 mph 86% 0.00 in 198 W/m2
16:20 57.6 °F 53.4 °F 30.11 in South 5 mph 7 mph 86% 0.00 in 169 W/m2
16:30 57.4 °F 52.9 °F 30.12 in SSE 3 mph 6 mph 85% 0.00 in 130 W/m2
16:40 57.2 °F 52.7 °F 30.11 in SSE 3 mph 6 mph 85% 0.00 in 177 W/m2
16:50 57.6 °F 54 °F 30.11 in SSE 3 mph 7 mph 88% 0.00 in 330 W/m2
17:00 58.1 °F 54.6 °F 30.10 in SSE 2 mph 6 mph 88% 0.00 in 332 W/m2
17:10 58.8 °F 54.3 °F 30.10 in SSW 3 mph 7 mph 85% 0.00 in 312 W/m2
17:20 58.8 °F 54 °F 30.10 in SSW 3 mph 7 mph 84% 0.00 in 221 W/m2
17:30 58.6 °F 53.8 °F 30.09 in SSW 3 mph 6 mph 84% 0.00 in 197 W/m2
17:40 58.6 °F 53.5 °F 30.09 in SSW 3 mph 6 mph 83% 0.00 in 259 W/m2
17:50 58.7 °F 53.5 °F 30.10 in SSW 3 mph 6 mph 83% 0.00 in 168 W/m2
18:00 58.5 °F 53.3 °F 30.10 in SSW 3 mph 6 mph 83% 0.00 in 134 W/m2
18:10 58.3 °F 53.1 °F 30.09 in SSW 2 mph 6 mph 83% 0.00 in 155 W/m2
18:20 58.3 °F 53.1 °F 30.09 in South 2 mph 4 mph 83% 0.00 in 90 W/m2
18:30 57.9 °F 52.8 °F 30.09 in SSE 2 mph 6 mph 83% 0.00 in 93 W/m2
18:40 57.7 °F 52.6 °F 30.09 in South 1 mph 5 mph 83% 0.00 in 86 W/m2
18:50 57.7 °F 53.3 °F 30.10 in SSE 2 mph 5 mph 85% 0.00 in 55 W/m2
19:00 57.4 °F 52.9 °F 30.09 in SSE 2 mph 6 mph 85% 0.00 in 47 W/m2
19:10 57.2 °F 52.7 °F 30.10 in SSE 2 mph 5 mph 85% 0.00 in 39 W/m2
19:20 56.8 °F 52.1 °F 30.09 in SSE 3 mph 6 mph 84% 0.00 in 45 W/m2
19:30 56.8 °F 52.1 °F 30.09 in SSE 5 mph 6 mph 84% 0.00 in 37 W/m2
19:40 56.7 °F 51.9 °F 30.09 in SSE 2 mph 7 mph 84% 0.00 in 24 W/m2
19:50 56.5 °F 51.7 °F 30.09 in SSE 2 mph 4 mph 84% 0.00 in 12 W/m2
20:00 56.5 °F 51.7 °F 30.09 in SSE 2 mph 5 mph 84% 0.00 in 4 W/m2
20:10 56.2 °F 51.7 °F 30.09 in SSE 3 mph 5 mph 85% 0.00 in 0 W/m2
20:20 56 °F 51.5 °F 30.09 in SSE 2 mph 5 mph 85% 0.00 in 0 W/m2
20:30 55.8 °F 51.6 °F 30.10 in SE 2 mph 6 mph 86% 0.00 in 0 W/m2
20:40 55.6 °F 51.5 °F 30.10 in SSE 2 mph 6 mph 86% 0.00 in 0 W/m2
20:50 55.4 °F 51.3 °F 30.10 in SE 1 mph 5 mph 86% 0.00 in 0 W/m2
21:00 55 °F 51.5 °F 30.10 in SSE 2 mph 4 mph 88% 0.00 in 0 W/m2
21:10 54.9 °F 51.4 °F 30.10 in SE 3 mph 5 mph 88% 0.00 in 0 W/m2
21:20 54.5 °F 51 °F 30.10 in SSE 2 mph 5 mph 88% 0.00 in 0 W/m2
21:30 54.3 °F 50.8 °F 30.10 in WSW 1 mph 3 mph 88% 0.00 in 0 W/m2
21:40 54 °F 50.5 °F 30.10 in East 2 mph 4 mph 88% 0.00 in 0 W/m2
21:50 53.6 °F 50.2 °F 30.11 in Calm   3 mph 88% 0.00 in 0 W/m2
22:00 53.3 °F 50.1 °F 30.11 in Calm   2 mph 89% 0.00 in 0 W/m2
22:10 52.9 °F 50 °F 30.10 in WSW 1 mph 3 mph 90% 0.00 in 0 W/m2
22:20 52.5 °F 49.7 °F 30.11 in South 1 mph 2 mph 90% 0.00 in 0 W/m2
22:30 52.2 °F 49.3 °F 30.11 in Calm   2 mph 90% 0.00 in 0 W/m2
22:40 51.8 °F 49 °F 30.11 in SE 1 mph 2 mph 90% 0.00 in 0 W/m2
22:50 51.4 °F 48.9 °F 30.11 in WSW 1 mph 3 mph 91% 0.00 in 0 W/m2
23:00 51.1 °F 48.5 °F 30.11 in NNW 1 mph 3 mph 91% 0.00 in 0 W/m2
23:10 50.7 °F 48.8 °F 30.11 in Calm   2 mph 93% 0.00 in 0 W/m2
23:20 50.4 °F 48.4 °F 30.11 in SW 1 mph 2 mph 93% 0.00 in 0 W/m2
23:30 50 °F 48.1 °F 30.11 in South 1 mph 3 mph 93% 0.00 in 0 W/m2
23:40 49.8 °F 47.9 °F 30.11 in WSW 1 mph 2 mph 93% 0.00 in 0 W/m2
23:50 49.5 °F 47.8 °F 30.10 in Calm   2 mph 94% 0.00 in 0 W/m2
Knjazevac, Serbia
Compliments of Weather Underground - 4 mb